createdAt,value
2019-03-11T00:01:48.385Z,10.37
2019-03-11T00:04:17.380Z,10.53
2019-03-11T00:06:45.975Z,9.87
2019-03-11T00:09:13.983Z,10.07
2019-03-11T00:11:41.985Z,10.77
2019-03-11T00:14:09.970Z,11.10
2019-03-11T00:16:37.949Z,12.43
2019-03-11T00:19:05.914Z,12.43
2019-03-11T00:21:33.867Z,11.50
2019-03-11T00:24:01.830Z,11.47
2019-03-11T00:26:29.789Z,11.20
2019-03-11T00:28:57.738Z,11.30
2019-03-11T00:31:25.775Z,11.13
2019-03-11T00:33:53.684Z,12.00
2019-03-11T00:36:21.636Z,11.83
2019-03-11T00:38:57.254Z,12.37
2019-03-11T00:41:25.177Z,12.23
2019-03-11T00:43:53.150Z,13.70
2019-03-11T00:46:21.149Z,13.40
2019-03-11T00:48:49.112Z,13.30
2019-03-11T00:51:17.128Z,16.40
2019-03-11T00:53:45.094Z,15.17
2019-03-11T00:56:13.051Z,14.83
2019-03-11T00:58:41.023Z,15.37
2019-03-11T01:01:08.990Z,13.77
2019-03-11T01:03:36.978Z,13.43
2019-03-11T01:06:04.895Z,13.80
2019-03-11T01:08:32.855Z,12.97
2019-03-11T01:11:00.809Z,14.20
2019-03-11T01:13:28.788Z,14.10
2019-03-11T01:15:56.751Z,13.77
2019-03-11T01:18:24.980Z,13.40
2019-03-11T01:20:52.933Z,13.90
2019-03-11T01:23:20.907Z,13.93
2019-03-11T01:25:48.855Z,14.47
2019-03-11T01:28:16.836Z,13.20
2019-03-11T01:30:44.777Z,13.30
2019-03-11T01:33:12.716Z,10.23
2019-03-11T01:35:40.681Z,11.13
2019-03-11T01:38:08.611Z,12.53
2019-03-11T01:40:36.565Z,10.10
2019-03-11T01:43:04.470Z,10.23
2019-03-11T01:45:32.416Z,9.17
2019-03-11T01:48:00.404Z,10.03
2019-03-11T01:50:28.344Z,9.00
2019-03-11T01:52:56.296Z,9.13
2019-03-11T01:55:24.231Z,8.77
2019-03-11T01:57:52.133Z,9.53
2019-03-11T02:00:20.049Z,9.67
2019-03-11T02:02:47.964Z,11.70
2019-03-11T02:05:15.936Z,9.93
2019-03-11T02:07:43.872Z,9.90
2019-03-11T02:10:12.304Z,10.60
2019-03-11T02:12:40.271Z,10.20
2019-03-11T02:15:08.832Z,10.30
2019-03-11T02:17:36.732Z,10.40
2019-03-11T02:20:04.837Z,9.30
2019-03-11T02:22:32.808Z,10.33
2019-03-11T02:25:00.814Z,9.47
2019-03-11T02:27:28.765Z,9.23
2019-03-11T02:29:56.706Z,7.97
2019-03-11T02:32:24.714Z,8.77
2019-03-11T02:34:52.650Z,9.30
2019-03-11T02:37:20.654Z,8.87
2019-03-11T02:39:48.638Z,7.27
2019-03-11T02:42:16.617Z,7.23
2019-03-11T02:44:44.523Z,7.63
2019-03-11T02:47:12.517Z,7.80
2019-03-11T02:49:43.734Z,7.33
2019-03-11T02:52:10.055Z,7.10
2019-03-11T02:54:38.031Z,6.67
2019-03-11T02:57:06.015Z,7.03
2019-03-11T02:59:33.953Z,5.97
2019-03-11T03:02:32.744Z,6.80
2019-03-11T03:05:28.627Z,6.33
2019-03-11T03:07:56.582Z,6.83
2019-03-11T03:10:24.539Z,6.17
2019-03-11T03:12:52.469Z,5.17
2019-03-11T03:15:20.406Z,5.47
2019-03-11T03:17:48.332Z,6.30
2019-03-11T03:20:16.272Z,6.50
2019-03-11T03:22:44.223Z,6.03
2019-03-11T03:25:12.152Z,7.30
2019-03-11T03:27:40.115Z,6.83
2019-03-11T03:30:09.503Z,7.70
2019-03-11T03:32:37.414Z,7.27
2019-03-11T03:35:05.637Z,7.40
2019-03-11T03:37:33.615Z,8.87
2019-03-11T03:40:01.662Z,8.67
2019-03-11T03:42:29.620Z,9.50
2019-03-11T03:45:35.006Z,9.33
2019-03-11T03:48:02.942Z,11.23
2019-03-11T03:50:31.640Z,10.70
2019-03-11T03:52:59.626Z,9.67
2019-03-11T03:55:27.601Z,10.33
2019-03-11T03:57:55.524Z,11.27
2019-03-11T04:00:23.448Z,11.80
2019-03-11T04:02:51.399Z,10.47
2019-03-11T04:05:19.413Z,10.67
2019-03-11T04:07:47.392Z,11.37
2019-03-11T04:10:15.351Z,10.63
2019-03-11T04:12:43.307Z,10.07
2019-03-11T04:15:11.228Z,11.23
2019-03-11T04:17:39.193Z,9.70
2019-03-11T04:20:08.355Z,10.13
2019-03-11T04:22:36.414Z,9.47
2019-03-11T04:25:04.395Z,10.37
2019-03-11T04:27:32.353Z,9.63
2019-03-11T04:30:00.391Z,8.80
2019-03-11T04:32:28.268Z,9.70
2019-03-11T04:34:56.231Z,8.60
2019-03-11T04:37:24.202Z,8.17
2019-03-11T04:39:52.153Z,7.03
2019-03-11T04:42:20.253Z,7.63
2019-03-11T04:44:48.193Z,6.63
2019-03-11T04:47:16.164Z,7.53
2019-03-11T04:49:44.157Z,6.57
2019-03-11T04:52:12.131Z,6.30
2019-03-11T04:54:40.095Z,7.60
2019-03-11T04:57:08.054Z,7.37
2019-03-11T04:59:36.077Z,6.33
2019-03-11T05:02:03.967Z,5.57
2019-03-11T05:04:31.948Z,5.33
2019-03-11T05:06:59.898Z,5.77
2019-03-11T05:09:27.886Z,4.93
2019-03-11T05:11:55.811Z,4.90
2019-03-11T05:14:23.797Z,5.27
2019-03-11T05:16:51.825Z,5.37
2019-03-11T05:19:19.722Z,5.33
2019-03-11T05:21:47.677Z,6.90
2019-03-11T05:24:15.648Z,5.80
2019-03-11T05:26:43.631Z,6.00
2019-03-11T05:29:11.746Z,5.57
2019-03-11T05:31:39.713Z,5.60
2019-03-11T05:34:07.671Z,6.87
2019-03-11T05:36:35.639Z,6.30
2019-03-11T05:39:03.892Z,6.53
2019-03-11T05:41:31.893Z,6.50
2019-03-11T05:43:59.851Z,6.47
2019-03-11T05:46:27.867Z,7.33
2019-03-11T05:48:55.838Z,10.90
2019-03-11T05:51:31.487Z,8.33
2019-03-11T05:53:53.467Z,7.80
2019-03-11T05:56:21.485Z,9.70
2019-03-11T05:58:49.484Z,7.60
2019-03-11T06:01:17.449Z,7.67
2019-03-11T06:03:45.446Z,9.63
2019-03-11T06:06:14.297Z,8.50
2019-03-11T06:08:42.353Z,7.80
2019-03-11T06:11:10.308Z,8.23
2019-03-11T06:13:38.340Z,7.70
2019-03-11T06:16:06.313Z,8.03
2019-03-11T06:18:59.220Z,7.60
2019-03-11T06:21:49.162Z,9.30
2019-03-11T06:24:17.163Z,8.23
2019-03-11T06:26:45.185Z,7.37
2019-03-11T06:29:13.213Z,8.55
2019-03-11T06:31:41.192Z,8.57
2019-03-11T06:34:09.196Z,8.50
2019-03-11T06:36:37.335Z,7.97
2019-03-11T06:39:07.025Z,7.77
2019-03-11T06:41:35.011Z,7.23
2019-03-11T06:44:03.023Z,7.80
2019-03-11T06:46:31.169Z,7.83
2019-03-11T06:48:59.167Z,8.37
2019-03-11T06:51:27.204Z,7.30
2019-03-11T06:53:55.169Z,7.80
2019-03-11T06:56:23.267Z,7.60
2019-03-11T06:58:51.191Z,7.23
2019-03-11T07:01:19.273Z,7.50
2019-03-11T07:03:47.202Z,7.30
2019-03-11T07:06:15.223Z,7.80
2019-03-11T07:08:43.176Z,8.23
2019-03-11T07:11:11.126Z,8.10
2019-03-11T07:13:39.085Z,7.10
2019-03-11T07:16:09.372Z,7.33
2019-03-11T07:18:36.693Z,6.20
2019-03-11T07:21:04.677Z,7.63
2019-03-11T07:23:32.602Z,7.63
2019-03-11T07:26:00.616Z,5.57
2019-03-11T07:28:28.619Z,7.80
2019-03-11T07:30:56.684Z,6.73
2019-03-11T07:33:24.673Z,7.20
2019-03-11T07:35:52.706Z,6.57
2019-03-11T07:38:20.704Z,6.83
2019-03-11T07:40:48.786Z,8.17
2019-03-11T07:43:16.772Z,6.83
2019-03-11T07:45:44.769Z,7.20
2019-03-11T07:48:12.851Z,8.83
2019-03-11T07:50:40.756Z,6.90
2019-03-11T07:53:08.798Z,5.83
2019-03-11T07:55:36.732Z,6.33
2019-03-11T07:58:04.806Z,6.20
2019-03-11T08:00:32.800Z,4.77
2019-03-11T08:03:00.774Z,5.40
2019-03-11T08:05:28.779Z,4.70
2019-03-11T08:07:56.854Z,5.00
2019-03-11T08:10:24.863Z,5.03
2019-03-11T08:12:52.850Z,4.83
2019-03-11T08:15:20.844Z,3.87
2019-03-11T08:17:48.851Z,5.60
2019-03-11T08:20:16.856Z,4.67
2019-03-11T08:22:45.327Z,6.27
2019-03-11T08:25:13.395Z,6.40
2019-03-11T08:27:41.360Z,4.50
2019-03-11T08:30:09.902Z,3.53
2019-03-11T08:32:37.930Z,3.43
2019-03-11T08:35:06.331Z,3.70
2019-03-11T08:37:34.383Z,3.97
2019-03-11T08:40:02.369Z,3.37
2019-03-11T08:42:30.730Z,3.43
2019-03-11T08:44:58.758Z,3.53
2019-03-11T08:47:26.805Z,4.17
2019-03-11T08:49:54.793Z,3.93
2019-03-11T08:52:22.731Z,5.00
2019-03-11T08:54:50.745Z,3.50
2019-03-11T08:57:18.766Z,3.70
2019-03-11T08:59:46.672Z,3.60
2019-03-11T09:02:15.054Z,3.90
2019-03-11T09:04:43.203Z,3.57
2019-03-11T09:07:11.249Z,4.47
2019-03-11T09:09:39.341Z,3.87
2019-03-11T09:12:07.335Z,3.73
2019-03-11T09:14:35.362Z,4.03
2019-03-11T09:17:03.378Z,3.70
2019-03-11T09:19:31.403Z,4.00
2019-03-11T09:21:59.473Z,4.63
2019-03-11T09:24:27.532Z,3.93
2019-03-11T09:26:56.376Z,4.10
2019-03-11T09:29:24.457Z,4.00
2019-03-11T09:31:52.457Z,4.40
2019-03-11T09:34:20.398Z,3.90
2019-03-11T09:36:48.469Z,4.20
2019-03-11T09:39:16.557Z,4.13
2019-03-11T09:41:44.578Z,3.10
2019-03-11T09:44:12.677Z,3.70
2019-03-11T09:46:40.746Z,3.50
2019-03-11T09:49:08.734Z,4.27
2019-03-11T09:51:36.737Z,3.87
2019-03-11T09:54:04.713Z,2.80
2019-03-11T09:56:42.670Z,3.87
2019-03-11T09:59:02.685Z,4.50
2019-03-11T10:01:30.657Z,3.83
2019-03-11T10:03:58.732Z,3.50
2019-03-11T10:06:26.907Z,3.77
2019-03-11T10:08:54.912Z,3.83
2019-03-11T10:11:23.034Z,3.70
2019-03-11T10:13:51.041Z,3.87
2019-03-11T10:16:19.087Z,3.73
2019-03-11T10:18:47.068Z,3.60
2019-03-11T10:21:15.288Z,3.70
2019-03-11T10:23:43.256Z,3.70
2019-03-11T10:26:11.241Z,3.97
2019-03-11T10:28:39.294Z,4.33
2019-03-11T10:31:07.285Z,3.93
2019-03-11T10:33:35.248Z,3.87
2019-03-11T10:36:03.281Z,3.30
2019-03-11T10:38:31.479Z,3.63
2019-03-11T10:40:59.404Z,2.83
2019-03-11T10:43:27.463Z,3.50
2019-03-11T10:45:55.440Z,3.40
2019-03-11T10:48:23.395Z,3.10
2019-03-11T10:50:51.589Z,3.33
2019-03-11T10:53:19.699Z,2.93
2019-03-11T10:55:47.745Z,2.93
2019-03-11T10:58:15.680Z,3.00
2019-03-11T11:00:43.665Z,2.60
2019-03-11T11:03:11.680Z,3.13
2019-03-11T11:05:39.739Z,3.53
2019-03-11T11:08:07.688Z,3.00
2019-03-11T11:10:35.730Z,3.57
2019-03-11T11:13:03.656Z,2.87
2019-03-11T11:15:31.646Z,3.35
2019-03-11T11:17:59.715Z,3.43
2019-03-11T11:20:27.701Z,3.08
2019-03-11T11:22:55.625Z,3.27
2019-03-11T11:25:23.665Z,3.30
2019-03-11T11:27:51.769Z,2.60
2019-03-11T11:30:20.258Z,3.30
2019-03-11T11:32:48.240Z,2.30
2019-03-11T11:35:16.364Z,2.97
2019-03-11T11:37:44.354Z,5.33
2019-03-11T11:40:13.149Z,4.25
2019-03-11T11:42:41.073Z,3.80
2019-03-11T11:45:09.640Z,4.73
2019-03-11T11:47:37.661Z,13.07
2019-03-11T11:50:06.108Z,4.57
2019-03-11T11:52:34.109Z,7.03
2019-03-11T11:55:02.083Z,7.37
2019-03-11T11:57:30.090Z,5.37
2019-03-11T11:59:58.027Z,7.07
2019-03-11T12:02:26.128Z,6.20
2019-03-11T12:04:54.133Z,5.13
2019-03-11T12:07:22.489Z,4.90
2019-03-11T12:09:50.580Z,5.33
2019-03-11T12:12:18.595Z,3.90
2019-03-11T12:14:46.564Z,3.87
2019-03-11T12:17:14.610Z,4.40
2019-03-11T12:19:42.698Z,4.10
2019-03-11T12:22:10.729Z,3.40
2019-03-11T12:24:38.760Z,3.50
2019-03-11T12:27:06.733Z,3.03
2019-03-11T12:29:34.746Z,3.43
2019-03-11T12:32:02.744Z,2.50
2019-03-11T12:34:30.717Z,2.80
2019-03-11T12:36:58.738Z,3.03
2019-03-11T12:39:26.719Z,2.87
2019-03-11T12:41:54.687Z,2.63
2019-03-11T12:44:22.655Z,2.10
2019-03-11T12:46:50.734Z,2.40
2019-03-11T12:49:18.687Z,2.67
2019-03-11T12:51:50.047Z,3.47
2019-03-11T12:54:16.373Z,2.80
2019-03-11T12:56:44.597Z,2.73
2019-03-11T12:59:13.202Z,3.40
2019-03-11T13:01:41.540Z,2.57
2019-03-11T13:04:10.115Z,2.90
2019-03-11T13:06:38.646Z,2.40
2019-03-11T13:09:07.362Z,2.57
2019-03-11T13:11:36.111Z,2.63
2019-03-11T13:14:04.909Z,2.90
2019-03-11T13:16:34.299Z,1.93
2019-03-11T13:19:12.750Z,2.53
2019-03-11T13:21:34.065Z,2.90
2019-03-11T13:24:02.874Z,2.55
2019-03-11T13:26:31.557Z,2.50
2019-03-11T13:29:02.620Z,2.70
2019-03-11T13:31:33.649Z,2.43
2019-03-11T13:34:01.681Z,1.90
2019-03-11T13:36:29.859Z,1.93
2019-03-11T13:38:58.001Z,2.03
2019-03-11T13:41:26.039Z,2.00
2019-03-11T13:43:54.849Z,2.20
2019-03-11T13:46:23.561Z,3.20
2019-03-11T13:48:51.873Z,1.50
2019-03-11T13:51:20.313Z,2.10
2019-03-11T13:53:48.814Z,3.73
2019-03-11T13:56:17.551Z,1.87
2019-03-11T13:58:45.999Z,2.00
2019-03-11T14:01:14.665Z,1.70
2019-03-11T14:03:43.349Z,1.50
2019-03-11T14:06:11.957Z,1.80
2019-03-11T14:08:40.330Z,1.90
2019-03-11T14:11:08.746Z,1.92
2019-03-11T14:13:37.398Z,1.80
2019-03-11T14:16:09.593Z,1.98
2019-03-11T14:18:38.183Z,2.07
2019-03-11T14:21:07.330Z,2.30
2019-03-11T14:23:35.616Z,2.30
2019-03-11T14:26:03.605Z,2.40
2019-03-11T14:28:31.677Z,1.83
2019-03-11T14:31:00.278Z,1.83
2019-03-11T14:33:28.523Z,1.70
2019-03-11T14:35:57.370Z,1.70
2019-03-11T14:38:25.587Z,2.20
2019-03-11T14:40:53.790Z,2.30
2019-03-11T14:43:22.046Z,1.80
2019-03-11T14:45:50.231Z,2.03
2019-03-11T14:48:18.456Z,1.87
2019-03-11T14:50:46.871Z,1.63
2019-03-11T14:53:15.437Z,1.90
2019-03-11T14:55:43.849Z,2.00
2019-03-11T14:58:13.152Z,1.70
2019-03-11T15:00:41.116Z,2.20
2019-03-11T15:03:09.693Z,1.83
2019-03-11T15:05:38.059Z,2.00
2019-03-11T15:08:06.914Z,3.10
2019-03-11T15:10:34.951Z,2.10
2019-03-11T15:13:03.233Z,2.30
2019-03-11T15:15:31.279Z,2.67
2019-03-11T15:17:59.599Z,1.70
2019-03-11T15:20:27.823Z,2.40
2019-03-11T15:23:05.804Z,2.13
2019-03-11T15:25:25.851Z,2.20
2019-03-11T15:27:54.021Z,2.43
2019-03-11T15:30:22.236Z,2.47
2019-03-11T15:32:50.729Z,2.87
2019-03-11T15:35:20.993Z,2.50
2019-03-11T15:37:49.950Z,2.40
2019-03-11T15:40:18.110Z,2.23
2019-03-11T15:42:46.895Z,2.07
2019-03-11T15:45:15.202Z,1.90
2019-03-11T15:47:47.105Z,3.13
2019-03-11T15:50:18.796Z,1.80
2019-03-11T15:52:47.270Z,2.27
2019-03-11T15:55:15.678Z,2.07
2019-03-11T15:57:44.004Z,2.23
2019-03-11T16:00:13.638Z,3.10
2019-03-11T16:02:41.909Z,2.90
2019-03-11T16:05:10.303Z,3.97
2019-03-11T16:07:38.740Z,3.27
2019-03-11T16:10:16.253Z,2.77
2019-03-11T16:12:38.373Z,2.57
2019-03-11T16:15:06.682Z,2.30
2019-03-11T16:17:35.114Z,1.80
2019-03-11T16:20:03.622Z,3.37
2019-03-11T16:22:32.374Z,2.27
2019-03-11T16:25:00.793Z,1.87
2019-03-11T16:27:29.529Z,2.40
2019-03-11T16:29:57.742Z,2.73
2019-03-11T16:32:25.929Z,2.33
2019-03-11T16:34:54.254Z,2.43
2019-03-11T16:37:22.532Z,2.40
2019-03-11T16:39:51.867Z,2.10
2019-03-11T16:42:20.001Z,2.33
2019-03-11T16:44:48.470Z,2.70
2019-03-11T16:47:19.019Z,3.70
2019-03-11T16:49:47.270Z,3.03
2019-03-11T16:52:15.548Z,2.47
2019-03-11T16:54:44.160Z,3.23
2019-03-11T16:57:12.135Z,2.60
2019-03-11T16:59:40.219Z,2.90
2019-03-11T17:02:08.963Z,2.50
2019-03-11T17:04:37.633Z,2.80
2019-03-11T17:07:06.363Z,4.53
2019-03-11T17:09:34.802Z,2.40
2019-03-11T17:12:03.062Z,2.90
2019-03-11T17:14:31.164Z,3.03
2019-03-11T17:16:59.273Z,3.10
2019-03-11T17:19:28.349Z,5.40
2019-03-11T17:21:56.834Z,2.70
2019-03-11T17:24:24.849Z,3.40
2019-03-11T17:26:53.759Z,5.13
2019-03-11T17:29:21.866Z,3.37
2019-03-11T17:31:50.149Z,3.90
2019-03-11T17:34:18.327Z,3.80
2019-03-11T17:36:46.374Z,3.40
2019-03-11T17:39:14.457Z,2.97
2019-03-11T17:41:42.993Z,3.77
2019-03-11T17:44:12.778Z,2.87
2019-03-11T17:46:40.858Z,4.47
2019-03-11T17:49:08.897Z,2.92
2019-03-11T17:51:39.549Z,2.70
2019-03-11T17:54:07.957Z,2.30
2019-03-11T17:56:35.982Z,3.20
2019-03-11T17:59:04.008Z,2.40
2019-03-11T18:01:32.003Z,2.67
2019-03-11T18:04:01.145Z,3.53
2019-03-11T18:06:29.170Z,3.53
2019-03-11T18:08:57.144Z,2.50
2019-03-11T18:11:25.154Z,3.10
2019-03-11T18:13:53.207Z,2.33
2019-03-11T18:16:21.274Z,1.80
2019-03-11T18:18:49.249Z,1.90
2019-03-11T18:21:17.387Z,1.73
2019-03-11T18:23:45.294Z,2.07
2019-03-11T18:26:13.270Z,1.60
2019-03-11T18:28:41.192Z,1.80
2019-03-11T18:31:10.121Z,1.60
2019-03-11T18:33:39.249Z,2.03
2019-03-11T18:36:07.832Z,1.87
2019-03-11T18:38:35.986Z,1.80
2019-03-11T18:41:04.009Z,1.87
2019-03-11T18:43:42.164Z,1.43
2019-03-11T18:46:01.665Z,2.10
2019-03-11T18:48:29.630Z,1.80
2019-03-11T18:50:57.630Z,1.90
2019-03-11T18:53:25.635Z,2.20
2019-03-11T18:55:53.654Z,1.70
2019-03-11T18:58:21.602Z,2.07
2019-03-11T19:00:49.565Z,1.87
2019-03-11T19:03:17.570Z,2.13
2019-03-11T19:05:45.487Z,2.27
2019-03-11T19:08:13.492Z,2.10
2019-03-11T19:10:41.496Z,2.10
2019-03-11T19:13:09.730Z,2.30
2019-03-11T19:15:38.000Z,2.60
2019-03-11T19:18:05.906Z,2.37
2019-03-11T19:20:33.983Z,2.47
2019-03-11T19:23:01.911Z,2.47
2019-03-11T19:25:29.975Z,2.70
2019-03-11T19:27:57.928Z,2.60
2019-03-11T19:30:26.756Z,2.33
2019-03-11T19:32:54.822Z,1.93
2019-03-11T19:35:22.830Z,2.60
2019-03-11T19:37:50.930Z,2.70
2019-03-11T19:40:18.945Z,3.10
2019-03-11T19:42:46.921Z,2.77
2019-03-11T19:45:15.111Z,3.13
2019-03-11T19:47:43.447Z,3.77
2019-03-11T19:50:11.666Z,3.37
2019-03-11T19:52:39.638Z,3.87
2019-03-11T19:55:07.663Z,3.53
2019-03-11T19:57:35.674Z,3.87
2019-03-11T20:00:03.802Z,4.03
2019-03-11T20:02:31.773Z,4.00
2019-03-11T20:04:59.760Z,4.50
2019-03-11T20:07:30.266Z,4.17
2019-03-11T20:09:57.277Z,5.17
2019-03-11T20:12:25.316Z,4.93
2019-03-11T20:14:53.290Z,5.30
2019-03-11T20:17:21.279Z,7.70
2019-03-11T20:19:49.224Z,6.20
2019-03-11T20:22:17.232Z,5.40
2019-03-11T20:24:45.233Z,5.30
2019-03-11T20:27:13.209Z,5.90
2019-03-11T20:29:41.143Z,6.43
2019-03-11T20:32:09.121Z,5.00
2019-03-11T20:34:37.120Z,5.47
2019-03-11T20:37:05.148Z,5.17
2019-03-11T20:39:33.083Z,5.40
2019-03-11T20:42:01.085Z,4.53
2019-03-11T20:44:29.046Z,5.50
2019-03-11T20:46:57.004Z,5.00
2019-03-11T20:49:24.963Z,5.42
2019-03-11T20:51:52.972Z,5.07
2019-03-11T20:54:20.950Z,4.53
2019-03-11T20:56:48.931Z,4.83
2019-03-11T20:59:16.865Z,4.50
2019-03-11T21:01:44.905Z,4.47
2019-03-11T21:04:12.839Z,4.07
2019-03-11T21:06:40.786Z,4.60
2019-03-11T21:09:09.021Z,4.00
2019-03-11T21:11:36.949Z,4.00
2019-03-11T21:14:04.970Z,3.83
2019-03-11T21:16:32.895Z,4.23
2019-03-11T21:19:00.817Z,4.10
2019-03-11T21:21:28.827Z,4.57
2019-03-11T21:24:02.027Z,4.13
2019-03-11T21:26:26.456Z,4.40
2019-03-11T21:28:54.444Z,4.77
2019-03-11T21:31:22.465Z,4.57
2019-03-11T21:33:58.234Z,4.73
2019-03-11T21:36:20.165Z,4.87
2019-03-11T21:38:48.246Z,5.20
2019-03-11T21:41:16.369Z,5.77
2019-03-11T21:43:44.382Z,5.57
2019-03-11T21:46:12.355Z,5.53
2019-03-11T21:48:40.313Z,6.67
2019-03-11T21:51:08.384Z,6.37
2019-03-11T21:53:36.415Z,6.13
2019-03-11T21:56:04.392Z,4.80
2019-03-11T21:58:32.413Z,5.70
2019-03-11T22:01:00.313Z,5.60
2019-03-11T22:03:28.286Z,5.23
2019-03-11T22:05:56.274Z,5.60
2019-03-11T22:08:24.265Z,6.30
2019-03-11T22:10:52.248Z,5.93
2019-03-11T22:13:20.222Z,6.20
2019-03-11T22:15:48.229Z,5.73
2019-03-11T22:18:16.355Z,6.23
2019-03-11T22:20:44.303Z,6.13
2019-03-11T22:23:12.397Z,6.27
2019-03-11T22:25:40.317Z,6.97
2019-03-11T22:28:08.331Z,6.50
2019-03-11T22:30:36.310Z,7.40
2019-03-11T22:33:04.279Z,6.97
2019-03-11T22:35:32.286Z,6.80
2019-03-11T22:38:00.259Z,7.10
2019-03-11T22:40:28.226Z,8.03
2019-03-11T22:42:56.173Z,6.83
2019-03-11T22:45:24.206Z,6.83
2019-03-11T22:47:52.180Z,6.97
2019-03-11T22:50:20.175Z,7.77
2019-03-11T22:52:48.111Z,6.67
2019-03-11T22:55:16.085Z,6.30
2019-03-11T22:57:44.035Z,7.17
2019-03-11T23:00:13.709Z,7.30
2019-03-11T23:02:41.846Z,7.10
2019-03-11T23:05:09.791Z,7.37
2019-03-11T23:07:37.714Z,7.17
2019-03-11T23:10:05.674Z,6.90
2019-03-11T23:12:33.603Z,7.67
2019-03-11T23:15:01.567Z,7.47
2019-03-11T23:17:29.611Z,8.30
2019-03-11T23:19:57.569Z,8.37
2019-03-11T23:22:25.546Z,7.43
2019-03-11T23:24:53.569Z,8.43
2019-03-11T23:27:21.516Z,8.17
2019-03-11T23:29:49.453Z,8.63
2019-03-11T23:32:17.466Z,11.07
2019-03-11T23:34:45.390Z,9.67
2019-03-11T23:37:13.350Z,9.43
2019-03-11T23:39:41.307Z,9.27
2019-03-11T23:42:09.306Z,9.00
2019-03-11T23:44:37.293Z,8.67
2019-03-11T23:47:05.301Z,9.80
2019-03-11T23:49:33.273Z,9.03
2019-03-11T23:52:01.336Z,8.70
2019-03-11T23:54:29.231Z,9.53
2019-03-11T23:56:57.172Z,9.80
2019-03-11T23:59:25.179Z,10.20
